createdAt,value
2022-08-16T00:00:04.386Z,99706.22
2022-08-16T00:02:35.245Z,99705.84
2022-08-16T00:05:06.678Z,99711.53
2022-08-16T00:07:36.520Z,99717.34
2022-08-16T00:10:08.544Z,99716.66
2022-08-16T00:12:50.732Z,99714.75
2022-08-16T00:15:51.588Z,99714.25
2022-08-16T00:18:18.983Z,99721.59
2022-08-16T00:20:51.920Z,99721.06
2022-08-16T00:23:34.668Z,99724.50
2022-08-16T00:26:35.678Z,99730.03
2022-08-16T00:28:59.980Z,99717.09
2022-08-16T00:31:58.858Z,99717.25
2022-08-16T00:34:43.335Z,99727.72
2022-08-16T00:37:16.968Z,99730.56
2022-08-16T00:39:57.391Z,99731.50
2022-08-16T00:42:29.757Z,99732.03
2022-08-16T00:45:06.422Z,99724.69
2022-08-16T00:47:48.944Z,99725.22
2022-08-16T00:50:19.791Z,99727.44
2022-08-16T00:52:51.151Z,99732.31
2022-08-16T00:55:23.218Z,99737.91
2022-08-16T00:57:59.162Z,99733.94
2022-08-16T01:00:32.442Z,99728.09
2022-08-16T01:03:11.745Z,99735.53
2022-08-16T01:05:43.057Z,99732.53
2022-08-16T01:08:35.342Z,99726.25
2022-08-16T01:11:05.647Z,99735.25
2022-08-16T01:13:38.243Z,99735.69
2022-08-16T01:16:11.527Z,99731.84
2022-08-16T01:18:46.988Z,99720.31
2022-08-16T01:21:24.840Z,99729.06
2022-08-16T01:24:52.120Z,99720.03
2022-08-16T01:27:06.810Z,99726.06
2022-08-16T01:29:57.738Z,99723.75
2022-08-16T01:32:33.567Z,99719.91
2022-08-16T01:35:06.935Z,99721.41
2022-08-16T01:37:43.281Z,99734.38
2022-08-16T01:40:19.240Z,99729.63
2022-08-16T01:42:50.920Z,99723.94
2022-08-16T01:45:24.711Z,99720.97
2022-08-16T01:48:20.031Z,99719.41
2022-08-16T01:51:09.539Z,99722.97
2022-08-16T01:53:43.486Z,99720.41
2022-08-16T01:56:30.816Z,99712.53
2022-08-16T01:59:03.685Z,99711.31
2022-08-16T02:01:35.123Z,99715.22
2022-08-16T02:04:10.631Z,99708.84
2022-08-16T02:06:46.708Z,99716.06
2022-08-16T02:09:19.306Z,99713.91
2022-08-16T02:11:57.742Z,99716.91
2022-08-16T02:14:30.704Z,99720.28
2022-08-16T02:17:04.658Z,99721.97
2022-08-16T02:19:59.703Z,99716.06
2022-08-16T02:22:33.535Z,99723.09
2022-08-16T02:25:05.089Z,99729.31
2022-08-16T02:27:38.110Z,99724.66
2022-08-16T02:30:36.719Z,99724.66
2022-08-16T02:33:03.289Z,99728.63
2022-08-16T02:35:33.686Z,99732.94
2022-08-16T02:38:08.539Z,99721.38
2022-08-16T02:40:39.610Z,99723.22
2022-08-16T02:43:14.719Z,99715.34
2022-08-16T02:45:45.686Z,99706.28
2022-08-16T02:48:29.207Z,99709.97
2022-08-16T02:51:06.992Z,99720.88
2022-08-16T02:53:47.807Z,99710.13
2022-08-16T02:56:20.401Z,99708.28
2022-08-16T02:58:54.715Z,99708.25
2022-08-16T03:01:36.544Z,99711.09
2022-08-16T03:04:28.740Z,99716.59
2022-08-16T03:07:00.193Z,99713.56
2022-08-16T03:09:41.254Z,99719.16
2022-08-16T03:12:16.623Z,99718.22
2022-08-16T03:14:51.378Z,99708.44
2022-08-16T03:17:23.750Z,99717.19
2022-08-16T03:20:04.603Z,99721.34
2022-08-16T03:22:39.293Z,99714.47
2022-08-16T03:25:18.195Z,99717.28
2022-08-16T03:30:40.537Z,99717.75
2022-08-16T03:33:13.456Z,99720.28
2022-08-16T03:35:51.043Z,99713.06
2022-08-16T03:38:35.282Z,99718.22
2022-08-16T03:41:25.645Z,99724.91
2022-08-16T03:44:01.605Z,99721.38
2022-08-16T03:46:45.124Z,99727.13
2022-08-16T03:49:23.748Z,99725.59
2022-08-16T03:52:07.751Z,99734.50
2022-08-16T03:54:39.144Z,99738.00
2022-08-16T03:57:23.678Z,99734.25
2022-08-16T04:00:01.166Z,99739.00
2022-08-16T04:02:47.099Z,99744.81
2022-08-16T04:05:21.465Z,99740.06
2022-08-16T04:07:52.449Z,99748.09
2022-08-16T04:10:35.779Z,99745.28
2022-08-16T04:13:06.533Z,99742.63
2022-08-16T04:15:52.788Z,99751.94
2022-08-16T04:18:28.635Z,99745.91
2022-08-16T04:21:00.325Z,99751.25
2022-08-16T04:23:33.863Z,99753.25
2022-08-16T04:26:07.743Z,99753.38
2022-08-16T04:28:55.667Z,99757.06
2022-08-16T04:31:36.298Z,99754.25
2022-08-16T04:34:08.709Z,99755.53
2022-08-16T04:36:39.058Z,99759.97
2022-08-16T04:39:08.757Z,99766.34
2022-08-16T04:41:40.693Z,99768.19
2022-08-16T04:44:31.049Z,99772.53
2022-08-16T04:47:03.138Z,99767.69
2022-08-16T04:49:53.686Z,99768.25
2022-08-16T04:52:33.790Z,99777.28
2022-08-16T04:55:09.630Z,99779.25
2022-08-16T04:57:43.684Z,99782.66
2022-08-16T05:00:32.035Z,99786.09
2022-08-16T05:03:09.948Z,99783.94
2022-08-16T05:05:59.429Z,99778.13
2022-08-16T05:08:35.162Z,99772.06
2022-08-16T05:11:17.977Z,99773.63
2022-08-16T05:13:50.013Z,99787.69
2022-08-16T05:16:27.587Z,99785.25
2022-08-16T05:19:13.177Z,99791.13
2022-08-16T05:22:05.822Z,99792.53
2022-08-16T05:24:40.164Z,99787.16
2022-08-16T05:27:13.676Z,99780.97
2022-08-16T05:29:59.323Z,99794.22
2022-08-16T05:32:39.461Z,99784.34
2022-08-16T05:35:18.680Z,99787.69
2022-08-16T05:38:30.934Z,99794.97
2022-08-16T05:41:04.067Z,99792.91
2022-08-16T05:43:46.818Z,99794.13
2022-08-16T05:46:29.834Z,99790.22
2022-08-16T05:49:09.116Z,99789.00
2022-08-16T05:51:41.918Z,99786.09
2022-08-16T05:54:24.972Z,99793.06
2022-08-16T05:56:57.801Z,99797.56
2022-08-16T05:59:30.809Z,99801.25
2022-08-16T06:02:01.106Z,99803.63
2022-08-16T06:04:37.432Z,99811.91
2022-08-16T06:07:24.781Z,99809.66
2022-08-16T06:10:10.631Z,99807.69
2022-08-16T06:12:41.977Z,99807.78
2022-08-16T06:15:16.652Z,99804.09
2022-08-16T06:17:47.535Z,99802.25
2022-08-16T06:20:35.638Z,99808.03
2022-08-16T06:23:19.570Z,99809.06
2022-08-16T06:26:02.998Z,99811.00
2022-08-16T06:28:39.491Z,99812.78
2022-08-16T06:31:16.277Z,99821.34
2022-08-16T06:33:49.812Z,99816.97
2022-08-16T06:36:24.095Z,99822.25
2022-08-16T06:39:11.247Z,99834.25
2022-08-16T06:42:22.317Z,99836.63
2022-08-16T06:45:04.813Z,99832.47
2022-08-16T06:47:53.450Z,99829.47
2022-08-16T06:50:29.962Z,99831.88
2022-08-16T06:53:08.523Z,99836.75
2022-08-16T06:55:43.240Z,99835.13
2022-08-16T06:58:22.302Z,99836.34
2022-08-16T07:01:02.486Z,99829.50
2022-08-16T07:03:55.655Z,99834.25
2022-08-16T07:06:26.618Z,99831.09
2022-08-16T07:08:59.542Z,99831.63
2022-08-16T07:11:47.271Z,99839.03
2022-08-16T07:14:28.582Z,99829.69
2022-08-16T07:17:02.328Z,99831.41
2022-08-16T07:20:03.214Z,99842.34
2022-08-16T07:22:37.274Z,99846.94
2022-08-16T07:25:16.937Z,99843.97
2022-08-16T07:27:48.131Z,99846.53
2022-08-16T07:30:45.443Z,99844.22
2022-08-16T07:33:52.897Z,99846.09
2022-08-16T07:36:09.864Z,99847.44
2022-08-16T07:38:44.660Z,99856.53
2022-08-16T07:41:15.806Z,99859.94
2022-08-16T07:43:50.116Z,99852.59
2022-08-16T07:46:39.167Z,99854.13
2022-08-16T07:49:16.542Z,99859.41
2022-08-16T07:51:48.369Z,99857.56
2022-08-16T07:54:20.864Z,99859.09
2022-08-16T07:56:53.124Z,99862.66
2022-08-16T07:59:24.665Z,99849.72
2022-08-16T08:01:58.622Z,99861.50
2022-08-16T08:04:33.698Z,99861.31
2022-08-16T08:07:08.815Z,99867.91
2022-08-16T08:09:43.241Z,99872.97
2022-08-16T08:12:31.309Z,99874.16
2022-08-16T08:15:04.019Z,99874.97
2022-08-16T08:17:42.925Z,99876.31
2022-08-16T08:20:28.228Z,99878.63
2022-08-16T08:23:03.027Z,99882.81
2022-08-16T08:25:52.067Z,99879.91
2022-08-16T08:28:29.567Z,99880.09
2022-08-16T08:31:05.801Z,99871.09
2022-08-16T08:33:47.367Z,99875.56
2022-08-16T08:36:33.067Z,99876.69
2022-08-16T08:39:12.711Z,99874.56
2022-08-16T08:41:46.612Z,99880.88
2022-08-16T08:44:28.690Z,99886.41
2022-08-16T08:47:09.392Z,99884.13
2022-08-16T08:49:55.261Z,99894.34
2022-08-16T08:52:33.706Z,99892.22
2022-08-16T08:55:10.870Z,99899.56
2022-08-16T08:57:45.804Z,99896.25
2022-08-16T09:00:30.192Z,99896.81
2022-08-16T09:03:08.060Z,99893.13
2022-08-16T09:05:51.671Z,99888.66
2022-08-16T09:08:26.475Z,99897.66
2022-08-16T09:11:03.996Z,99902.75
2022-08-16T09:13:48.339Z,99897.66
2022-08-16T09:17:01.330Z,99899.22
2022-08-16T09:19:13.353Z,99897.81
2022-08-16T09:21:56.003Z,99891.53
2022-08-16T09:24:51.687Z,99892.81
2022-08-16T09:27:16.089Z,99897.97
2022-08-16T09:29:46.752Z,99893.19
2022-08-16T09:32:31.216Z,99892.47
2022-08-16T09:35:02.769Z,99893.81
2022-08-16T09:37:37.228Z,99893.00
2022-08-16T09:40:17.987Z,99895.13
2022-08-16T09:42:59.818Z,99890.88
2022-08-16T09:45:33.090Z,99891.44
2022-08-16T09:48:06.443Z,99883.41
2022-08-16T09:50:39.670Z,99888.84
2022-08-16T09:53:16.613Z,99881.34
2022-08-16T09:55:49.652Z,99885.16
2022-08-16T09:58:41.462Z,99887.72
2022-08-16T10:01:11.229Z,99873.59
2022-08-16T10:04:02.063Z,99885.34
2022-08-16T10:06:33.522Z,99881.22
2022-08-16T10:09:10.664Z,99885.88
2022-08-16T10:11:54.224Z,99888.25
2022-08-16T10:14:24.833Z,99889.53
2022-08-16T10:17:07.499Z,99885.81
2022-08-16T10:19:40.774Z,99883.28
2022-08-16T10:22:14.082Z,99884.81
2022-08-16T10:24:55.730Z,99885.09
2022-08-16T10:27:47.054Z,99893.25
2022-08-16T10:30:25.359Z,99885.78
2022-08-16T10:32:57.932Z,99888.13
2022-08-16T10:35:32.924Z,99886.69
2022-08-16T10:38:03.014Z,99885.66
2022-08-16T10:40:39.279Z,99890.75
2022-08-16T10:43:16.914Z,99889.06
2022-08-16T10:46:00.298Z,99890.31
2022-08-16T10:48:31.336Z,99888.91
2022-08-16T10:51:01.794Z,99894.31
2022-08-16T10:53:34.063Z,99900.59
2022-08-16T10:56:51.907Z,99897.25
2022-08-16T10:59:29.633Z,99898.78
2022-08-16T11:07:55.197Z,99890.25
2022-08-16T11:11:04.972Z,99890.31
2022-08-16T11:19:05.195Z,99902.69
2022-08-16T11:21:37.608Z,99900.84
2022-08-16T11:24:42.544Z,99897.09
2022-08-16T11:27:20.466Z,99899.81
2022-08-16T11:29:55.308Z,99893.53
2022-08-16T11:32:31.956Z,99886.84
2022-08-16T11:35:13.419Z,99888.72
2022-08-16T11:40:44.212Z,99894.38
2022-08-16T11:43:17.003Z,99898.75
2022-08-16T11:45:53.595Z,99891.66
2022-08-16T11:48:24.603Z,99895.63
2022-08-16T11:50:54.300Z,99884.53
2022-08-16T11:53:27.067Z,99896.66
2022-08-16T11:55:57.827Z,99891.00
2022-08-16T11:58:31.544Z,99898.97
2022-08-16T12:01:05.938Z,99900.03
2022-08-16T12:03:41.879Z,99895.66
2022-08-16T12:06:30.399Z,99882.66
2022-08-16T12:09:02.148Z,99893.75
2022-08-16T12:11:33.261Z,99901.47
2022-08-16T12:14:04.715Z,99896.47
2022-08-16T12:16:38.390Z,99893.94
2022-08-16T12:19:13.664Z,99894.50
2022-08-16T12:21:58.432Z,99896.78
2022-08-16T12:24:30.404Z,99902.69
2022-08-16T12:27:01.072Z,99906.66
2022-08-16T12:29:31.796Z,99895.13
2022-08-16T12:32:27.016Z,99893.06
2022-08-16T12:34:54.232Z,99896.56
2022-08-16T12:37:24.722Z,99902.69
2022-08-16T12:39:56.046Z,99901.47
2022-08-16T12:42:52.588Z,99895.63
2022-08-16T12:45:17.088Z,99894.97
2022-08-16T12:48:31.524Z,99894.75
2022-08-16T12:50:56.986Z,99892.22
2022-08-16T12:53:27.044Z,99894.94
2022-08-16T12:56:02.208Z,99890.97
2022-08-16T12:58:49.828Z,99892.66
2022-08-16T13:01:22.976Z,99898.53
2022-08-16T13:04:20.789Z,99906.31
2022-08-16T13:06:52.079Z,99906.31
2022-08-16T13:09:26.755Z,99905.06
2022-08-16T13:12:05.546Z,99903.78
2022-08-16T13:14:39.679Z,99906.94
2022-08-16T13:17:18.629Z,99895.84
2022-08-16T13:20:11.328Z,99896.47
2022-08-16T13:22:44.617Z,99907.97
2022-08-16T13:25:21.033Z,99895.41
2022-08-16T13:28:02.793Z,99893.94
2022-08-16T13:30:44.154Z,99896.84
2022-08-16T13:33:27.613Z,99902.47
2022-08-16T13:36:03.617Z,99896.38
2022-08-16T13:38:37.649Z,99891.13
2022-08-16T13:41:09.032Z,99889.66
2022-08-16T13:43:39.623Z,99886.50
2022-08-16T13:46:10.985Z,99895.28
2022-08-16T13:48:44.325Z,99886.28
2022-08-16T13:51:18.961Z,99889.25
2022-08-16T13:53:54.791Z,99884.22
2022-08-16T13:56:37.640Z,99893.84
2022-08-16T13:59:19.610Z,99891.31
2022-08-16T14:01:54.930Z,99888.75
2022-08-16T14:04:26.952Z,99882.91
2022-08-16T14:07:00.928Z,99878.50
2022-08-16T14:09:31.959Z,99886.03
2022-08-16T14:12:09.572Z,99894.44
2022-08-16T14:14:39.960Z,99901.38
2022-08-16T14:17:09.931Z,99900.34
2022-08-16T14:19:45.098Z,99894.28
2022-08-16T14:22:31.049Z,99898.91
2022-08-16T14:25:07.236Z,99888.84
2022-08-16T14:27:41.964Z,99887.56
2022-08-16T14:30:15.282Z,99888.22
2022-08-16T14:32:49.956Z,99890.28
2022-08-16T14:35:36.612Z,99894.88
2022-08-16T14:38:18.573Z,99891.78
2022-08-16T14:40:55.214Z,99894.69
2022-08-16T14:43:25.999Z,99891.34
2022-08-16T14:45:59.597Z,99895.13
2022-08-16T14:48:29.263Z,99893.22
2022-08-16T14:50:59.041Z,99896.19
2022-08-16T14:53:33.041Z,99896.38
2022-08-16T14:56:03.091Z,99891.78
2022-08-16T14:58:36.876Z,99901.00
2022-08-16T15:01:10.029Z,99893.47
2022-08-16T15:03:44.601Z,99893.06
2022-08-16T15:06:14.800Z,99893.88
2022-08-16T15:08:49.330Z,99892.84
2022-08-16T15:11:20.588Z,99886.19
2022-08-16T15:13:51.724Z,99884.31
2022-08-16T15:16:22.198Z,99889.91
2022-08-16T15:18:58.913Z,99893.91
2022-08-16T15:21:29.736Z,99896.19
2022-08-16T15:24:02.667Z,99900.63
2022-08-16T15:26:45.378Z,99891.19
2022-08-16T15:29:16.922Z,99884.94
2022-08-16T15:31:48.138Z,99889.31
2022-08-16T15:34:22.067Z,99885.59
2022-08-16T15:36:56.413Z,99892.63
2022-08-16T15:39:37.126Z,99893.06
2022-08-16T15:42:11.144Z,99890.94
2022-08-16T15:44:51.290Z,99891.19
2022-08-16T15:47:26.201Z,99894.06
2022-08-16T15:49:57.847Z,99896.47
2022-08-16T15:52:30.680Z,99893.75
2022-08-16T15:55:07.430Z,99891.63
2022-08-16T15:57:43.164Z,99894.53
2022-08-16T16:00:26.725Z,99890.16
2022-08-16T16:03:03.855Z,99889.31
2022-08-16T16:05:38.409Z,99891.03
2022-08-16T16:08:10.985Z,99893.53
2022-08-16T16:10:54.288Z,99895.66
2022-08-16T16:13:25.443Z,99897.50
2022-08-16T16:15:56.650Z,99893.13
2022-08-16T16:18:30.043Z,99895.22
2022-08-16T16:21:02.337Z,99894.78
2022-08-16T16:23:35.054Z,99891.66
2022-08-16T16:26:14.069Z,99892.06
2022-08-16T16:29:06.429Z,99894.78
2022-08-16T16:31:36.006Z,99896.88
2022-08-16T16:34:06.706Z,99891.00
2022-08-16T16:36:37.333Z,99892.72
2022-08-16T16:39:09.089Z,99901.09
2022-08-16T16:41:42.334Z,99898.13
2022-08-16T16:44:18.191Z,99909.44
2022-08-16T16:47:01.581Z,99899.63
2022-08-16T16:49:32.959Z,99904.19
2022-08-16T16:52:06.991Z,99905.44
2022-08-16T16:54:37.521Z,99899.81
2022-08-16T16:57:30.237Z,99896.06
2022-08-16T16:59:57.635Z,99896.25
2022-08-16T17:02:41.599Z,99894.16
2022-08-16T17:05:17.512Z,99898.75
2022-08-16T17:07:47.792Z,99893.94
2022-08-16T17:10:46.403Z,99895.41
2022-08-16T17:13:10.841Z,99904.19
2022-08-16T17:15:40.510Z,99907.06
2022-08-16T17:19:14.590Z,99901.06
2022-08-16T17:21:00.874Z,99895.34
2022-08-16T17:23:59.315Z,99905.81
2022-08-16T17:26:20.755Z,99904.75
2022-08-16T17:29:00.120Z,99898.25
2022-08-16T17:31:38.474Z,99903.09
2022-08-16T17:34:31.032Z,99903.06
2022-08-16T17:37:05.158Z,99894.50
2022-08-16T17:39:35.503Z,99894.47
2022-08-16T17:42:25.823Z,99894.03
2022-08-16T17:44:58.097Z,99900.03
2022-08-16T17:47:28.186Z,99895.00
2022-08-16T17:49:58.852Z,99895.34
2022-08-16T17:52:29.306Z,99904.06
2022-08-16T17:54:59.060Z,99896.97
2022-08-16T17:57:29.141Z,99905.47
2022-08-16T18:00:01.787Z,99905.03
2022-08-16T18:02:44.839Z,99908.16
2022-08-16T18:05:16.302Z,99906.03
2022-08-16T18:07:47.106Z,99910.66
2022-08-16T18:10:32.425Z,99907.75
2022-08-16T18:13:03.570Z,99910.44
2022-08-16T18:15:36.510Z,99909.34
2022-08-16T18:18:06.365Z,99910.72
2022-08-16T18:20:48.802Z,99916.72
2022-08-16T18:23:21.932Z,99921.28
2022-08-16T18:25:55.099Z,99916.16
2022-08-16T18:28:25.425Z,99916.09
2022-08-16T18:31:01.159Z,99913.56
2022-08-16T18:33:43.210Z,99916.44
2022-08-16T18:36:20.055Z,99921.00
2022-08-16T18:38:51.614Z,99917.94
2022-08-16T18:41:23.019Z,99929.78
2022-08-16T18:44:23.199Z,99927.25
2022-08-16T18:46:50.791Z,99935.44
2022-08-16T18:49:21.183Z,99931.13
2022-08-16T18:51:51.109Z,99940.00
2022-08-16T18:54:21.396Z,99944.59
2022-08-16T18:56:55.875Z,99946.38
2022-08-16T18:59:31.095Z,99948.28
2022-08-16T19:02:05.656Z,99957.94
2022-08-16T19:04:56.080Z,99956.91
2022-08-16T19:07:30.934Z,99952.75
2022-08-16T19:10:02.365Z,99958.72
2022-08-16T19:12:37.693Z,99955.44
2022-08-16T19:15:15.645Z,99959.16
2022-08-16T19:17:48.748Z,99962.22
2022-08-16T19:20:21.056Z,99967.38
2022-08-16T19:23:10.090Z,99960.84
2022-08-16T19:25:48.296Z,99964.50
2022-08-16T19:28:51.640Z,99977.94
2022-08-16T19:31:18.713Z,99974.97
2022-08-16T19:33:54.878Z,99978.94
2022-08-16T19:36:32.488Z,99990.69
2022-08-16T19:39:09.207Z,99984.81
2022-08-16T19:41:40.374Z,99991.13
2022-08-16T19:44:10.476Z,99994.19
2022-08-16T19:46:43.498Z,100002.00
2022-08-16T19:49:16.872Z,100004.97
2022-08-16T19:51:46.910Z,100002.44
2022-08-16T19:54:16.827Z,100006.59
2022-08-16T19:56:46.817Z,100005.16
2022-08-16T19:59:19.860Z,100004.78
2022-08-16T20:01:52.792Z,100021.91
2022-08-16T20:04:26.877Z,100015.72
2022-08-16T20:06:57.202Z,100008.34
2022-08-16T20:09:27.393Z,100015.28
2022-08-16T20:11:57.164Z,100011.59
2022-08-16T20:14:26.880Z,100009.94
2022-08-16T20:16:58.275Z,100022.28
2022-08-16T20:19:39.964Z,100026.56
2022-08-16T20:22:30.030Z,100033.34
2022-08-16T20:25:09.360Z,100029.16
2022-08-16T20:27:39.066Z,100031.84
2022-08-16T20:30:10.804Z,100037.84
2022-08-16T20:32:40.533Z,100044.25
2022-08-16T20:35:14.209Z,100045.97
2022-08-16T20:37:44.572Z,100048.66
2022-08-16T20:40:28.394Z,100052.69
2022-08-16T20:43:08.219Z,100048.34
2022-08-16T20:45:38.064Z,100052.25
2022-08-16T20:48:08.266Z,100043.66
2022-08-16T20:50:40.758Z,100053.44
2022-08-16T20:53:10.540Z,100050.75
2022-08-16T20:55:41.744Z,100055.81
2022-08-16T20:58:11.490Z,100061.22
2022-08-16T21:00:41.302Z,100053.63
2022-08-16T21:03:12.073Z,100054.28
2022-08-16T21:05:46.531Z,100059.50
2022-08-16T21:08:44.079Z,100056.97
2022-08-16T21:11:08.571Z,100055.44
2022-08-16T21:13:42.614Z,100063.19
2022-08-16T21:16:13.018Z,100062.53
2022-08-16T21:18:42.711Z,100058.16
2022-08-16T21:21:15.183Z,100057.47
2022-08-16T21:23:44.984Z,100058.50
2022-08-16T21:26:14.732Z,100060.50
2022-08-16T21:28:45.517Z,100056.63
2022-08-16T21:31:16.378Z,100054.78
2022-08-16T21:33:54.793Z,100049.69
2022-08-16T21:36:34.872Z,100058.47
2022-08-16T21:39:07.866Z,100054.75
2022-08-16T21:41:38.441Z,100059.47
2022-08-16T21:44:08.236Z,100057.75
2022-08-16T21:46:37.875Z,100057.44
2022-08-16T21:49:07.555Z,100048.34
2022-08-16T21:51:39.832Z,100052.88
2022-08-16T21:54:09.527Z,100044.13
2022-08-16T21:56:39.226Z,100044.78
2022-08-16T21:59:11.032Z,100046.81
2022-08-16T22:01:42.364Z,100045.44
2022-08-16T22:04:37.854Z,100044.78
2022-08-16T22:07:06.519Z,100045.22
2022-08-16T22:09:36.294Z,100048.75
2022-08-16T22:12:06.584Z,100054.66
2022-08-16T22:14:36.487Z,100052.63
2022-08-16T22:17:06.196Z,100046.88
2022-08-16T22:19:37.121Z,100049.56
2022-08-16T22:22:09.843Z,100049.44
2022-08-16T22:24:39.801Z,100052.25
2022-08-16T22:27:09.606Z,100052.59
2022-08-16T22:29:42.191Z,100055.78
2022-08-16T22:32:12.640Z,100064.84
2022-08-16T22:34:42.265Z,100055.78
2022-08-16T22:37:14.500Z,100063.50
2022-08-16T22:39:44.919Z,100058.44
2022-08-16T22:42:15.252Z,100061.97
2022-08-16T22:44:46.437Z,100056.91
2022-08-16T22:47:16.776Z,100067.84
2022-08-16T22:49:47.778Z,100065.31
2022-08-16T22:52:50.760Z,100068.31
2022-08-16T22:55:10.742Z,100058.72
2022-08-16T22:57:40.389Z,100065.44
2022-08-16T23:00:12.866Z,100067.09
2022-08-16T23:02:58.063Z,100071.09
2022-08-16T23:05:29.137Z,100060.34
2022-08-16T23:08:02.270Z,100061.19
2022-08-16T23:10:32.647Z,100066.19
2022-08-16T23:13:05.379Z,100060.47
2022-08-16T23:15:41.821Z,100063.78
2022-08-16T23:18:12.082Z,100060.41
2022-08-16T23:20:42.529Z,100061.44
2022-08-16T23:23:20.306Z,100048.16
2022-08-16T23:25:55.050Z,100042.81
2022-08-16T23:28:27.757Z,100039.91
2022-08-16T23:30:57.779Z,100046.63
2022-08-16T23:33:28.720Z,100040.88
2022-08-16T23:36:00.268Z,100042.56
2022-08-16T23:38:38.439Z,100042.38
2022-08-16T23:41:11.971Z,100041.66
2022-08-16T23:43:43.715Z,100035.31
2022-08-16T23:46:16.946Z,100031.69
2022-08-16T23:49:55.983Z,100029.16
2022-08-16T23:51:37.216Z,100027.81
2022-08-16T23:54:11.526Z,100022.72
2022-08-16T23:56:41.269Z,100026.19
2022-08-16T23:59:11.239Z,100028.38
